Time;durP1;ratioP1;P1;durP2;ratioP2;P2;SDS_P1;SDS_P2;PMS_P1;PMS_P2;Temp;Humidity;BMP_temperature;BMP_pressure;BME280_temperature;BME280_humidity;BME280_pressure;Samples;Min_cycle;Max_cycle;Signal;HPM_P1;HPM_P2
2021/07/26 00:01:58;;;;;;;;;;;17.30;1.00;;;;;;4991636;28;19940;-62
2021/07/26 00:04:23;;;;;;;;;;;17.30;1.00;;;;;;4991303;28;19913;-62
2021/07/26 00:06:49;;;;;;;;;;;17.30;1.00;;;;;;4991235;28;20013;-62
2021/07/26 00:09:14;;;;;;;;;;;17.30;1.00;;;;;;4990422;28;19910;-62
2021/07/26 00:11:40;;;;;;;;;;;17.30;1.00;;;;;;4991099;28;20335;-62
2021/07/26 00:14:05;;;;;;;;;;;17.30;1.00;;;;;;4990682;28;19910;-62
2021/07/26 00:16:31;;;;;;;;;;;17.30;1.00;;;;;;4990577;28;19910;-62
2021/07/26 00:18:56;;;;;;;;;;;17.30;1.00;;;;;;4990300;28;19909;-62
2021/07/26 00:21:22;;;;;;;;;;;17.30;1.00;;;;;;4991178;28;19957;-62
2021/07/26 00:23:47;;;;;;;;;;;17.30;1.00;;;;;;4991550;28;19922;-63
2021/07/26 00:26:13;;;;;;;;;;;17.30;1.00;;;;;;4990705;28;19925;-62
2021/07/26 00:28:39;;;;;;;;;;;17.20;1.00;;;;;;4989978;28;19917;-63
2021/07/26 00:31:05;;;;;;;;;;;17.20;1.00;;;;;;4990133;28;19910;-63
2021/07/26 00:34:09;;;;;;;;;;;17.20;1.00;;;;;;4991293;28;20424;-62
2021/07/26 00:36:35;;;;;;;;;;;17.20;1.00;;;;;;4990514;28;19910;-63
2021/07/26 00:39:01;;;;;;;;;;;17.20;1.00;;;;;;4990068;28;19921;-62
2021/07/26 00:41:26;;;;;;;;;;;17.20;1.00;;;;;;4990857;28;19975;-62
2021/07/26 00:43:52;;;;;;;;;;;17.20;1.00;;;;;;4990836;28;19926;-62
2021/07/26 00:46:17;;;;;;;;;;;17.20;1.00;;;;;;4990564;28;19956;-63
2021/07/26 00:48:43;;;;;;;;;;;17.20;1.00;;;;;;4989824;28;19913;-63
2021/07/26 00:51:09;;;;;;;;;;;17.20;1.00;;;;;;4990579;28;20359;-63
2021/07/26 00:53:34;;;;;;;;;;;17.20;1.00;;;;;;4990769;28;19910;-63
2021/07/26 00:56:00;;;;;;;;;;;17.30;1.00;;;;;;4990858;28;19910;-63
2021/07/26 00:58:26;;;;;;;;;;;17.30;1.00;;;;;;4990225;28;20377;-63
2021/07/26 01:00:52;;;;;;;;;;;17.30;1.00;;;;;;4993586;28;19910;-63
2021/07/26 01:03:17;;;;;;;;;;;17.30;1.00;;;;;;4994306;28;20286;-63
2021/07/26 01:05:43;;;;;;;;;;;17.30;1.00;;;;;;4994393;28;20254;-63
2021/07/26 01:08:08;;;;;;;;;;;17.30;1.00;;;;;;4993511;28;20026;-63
2021/07/26 01:10:34;;;;;;;;;;;17.40;1.00;;;;;;4993732;28;20304;-63
2021/07/26 01:12:59;;;;;;;;;;;17.40;1.00;;;;;;4993895;28;19910;-63
2021/07/26 01:15:25;;;;;;;;;;;17.30;1.00;;;;;;4993384;28;20318;-63
2021/07/26 01:17:53;;;;;;;;;;;17.30;1.00;;;;;;4993366;28;19957;-63
2021/07/26 01:20:19;;;;;;;;;;;17.30;1.00;;;;;;4993762;28;19948;-63
2021/07/26 01:22:44;;;;;;;;;;;17.30;1.00;;;;;;4993880;28;19961;-63
2021/07/26 01:25:10;;;;;;;;;;;17.20;1.00;;;;;;4993365;28;19941;-63
2021/07/26 01:27:36;;;;;;;;;;;17.20;1.00;;;;;;4993034;28;20056;-63
2021/07/26 01:30:02;;;;;;;;;;;17.20;1.00;;;;;;4992984;28;19917;-63
2021/07/26 01:32:27;;;;;;;;;;;17.10;1.00;;;;;;4993871;28;19910;-63
2021/07/26 01:34:53;;;;;;;;;;;17.10;1.00;;;;;;4993736;28;19916;-62
2021/07/26 01:37:19;;;;;;;;;;;17.10;1.00;;;;;;4992714;28;19918;-64
2021/07/26 01:39:44;;;;;;;;;;;17.10;1.00;;;;;;4993262;28;20334;-63
2021/07/26 01:42:10;;;;;;;;;;;17.10;1.00;;;;;;4993416;28;19920;-63
2021/07/26 01:44:35;;;;;;;;;;;17.10;1.00;;;;;;4992845;28;19967;-64
2021/07/26 01:47:07;;;;;;;;;;;17.10;1.00;;;;;;4993237;28;19989;-62
2021/07/26 01:49:48;;;;;;;;;;;17.10;1.00;;;;;;4992769;28;19910;-63
2021/07/26 01:52:15;;;;;;;;;;;17.10;1.00;;;;;;4993594;28;19913;-63
2021/07/26 01:54:40;;;;;;;;;;;17.10;1.00;;;;;;4993507;28;19910;-63
2021/07/26 01:57:06;;;;;;;;;;;17.10;1.00;;;;;;4993194;28;19910;-62
2021/07/26 01:59:31;;;;;;;;;;;17.10;1.00;;;;;;4992117;28;20282;-63
2021/07/26 02:01:57;;;;;;;;;;;17.20;1.00;;;;;;4993265;28;19909;-63
2021/07/26 02:04:22;;;;;;;;;;;17.20;1.00;;;;;;4993097;28;19913;-63
2021/07/26 02:06:49;;;;;;;;;;;17.20;1.00;;;;;;4992744;28;20004;-63
2021/07/26 02:09:14;;;;;;;;;;;17.10;1.00;;;;;;4992031;28;20283;-61
2021/07/26 02:11:40;;;;;;;;;;;17.20;1.00;;;;;;4992745;28;19917;-61
2021/07/26 02:14:09;;;;;;;;;;;17.20;1.00;;;;;;4992307;28;19917;-62
2021/07/26 02:16:38;;;;;;;;;;;17.20;1.00;;;;;;4992701;28;20714;-62
2021/07/26 02:19:04;;;;;;;;;;;17.20;1.00;;;;;;4991976;28;19917;-61
2021/07/26 02:21:30;;;;;;;;;;;17.30;1.00;;;;;;4992303;28;19910;-63
2021/07/26 02:23:55;;;;;;;;;;;17.30;1.00;;;;;;4992480;28;19924;-63
2021/07/26 02:26:21;;;;;;;;;;;17.30;1.00;;;;;;4992595;28;19933;-62
2021/07/26 02:28:46;;;;;;;;;;;17.40;1.00;;;;;;4991997;28;20048;-63
2021/07/26 02:31:12;;;;;;;;;;;17.40;1.00;;;;;;4992153;28;20368;-63
2021/07/26 02:33:37;;;;;;;;;;;17.40;1.00;;;;;;4992641;28;20140;-63
2021/07/26 02:36:03;;;;;;;;;;;17.40;1.00;;;;;;4991318;28;19945;-63
2021/07/26 02:38:28;;;;;;;;;;;17.40;1.00;;;;;;4991999;28;19921;-63
2021/07/26 02:40:54;;;;;;;;;;;17.40;1.00;;;;;;4992320;28;19917;-62
2021/07/26 02:43:19;;;;;;;;;;;17.30;1.00;;;;;;4992513;28;19914;-63
2021/07/26 02:45:45;;;;;;;;;;;17.30;1.00;;;;;;4991513;28;19917;-63
2021/07/26 02:48:10;;;;;;;;;;;17.30;1.00;;;;;;4991729;28;19914;-63
2021/07/26 02:50:36;;;;;;;;;;;17.20;1.00;;;;;;4992107;28;19949;-63
2021/07/26 02:53:01;;;;;;;;;;;17.20;1.00;;;;;;4992239;28;19910;-63
2021/07/26 02:55:29;;;;;;;;;;;17.20;1.00;;;;;;4992173;28;19963;-63
2021/07/26 02:57:56;;;;;;;;;;;17.20;1.00;;;;;;4990892;28;19917;-63
2021/07/26 03:00:21;;;;;;;;;;;17.10;1.00;;;;;;4991543;28;19910;-63
2021/07/26 03:02:47;;;;;;;;;;;17.10;1.00;;;;;;4992111;28;19910;-63
2021/07/26 03:05:12;;;;;;;;;;;17.10;1.00;;;;;;4991620;28;20370;-63
2021/07/26 03:07:37;;;;;;;;;;;17.10;1.00;;;;;;4990662;28;19921;-63
2021/07/26 03:10:03;;;;;;;;;;;17.10;1.00;;;;;;4991850;28;19953;-63
2021/07/26 03:12:29;;;;;;;;;;;17.10;1.00;;;;;;4991530;28;19910;-63
2021/07/26 03:14:54;;;;;;;;;;;17.10;1.00;;;;;;4991560;28;19910;-63
2021/07/26 03:17:20;;;;;;;;;;;17.10;1.00;;;;;;4991677;28;20445;-63
2021/07/26 03:19:46;;;;;;;;;;;17.10;1.00;;;;;;4991029;28;19914;-63
2021/07/26 03:22:30;;;;;;;;;;;17.10;1.00;;;;;;4989770;28;19932;-63
2021/07/26 03:24:55;;;;;;;;;;;17.10;1.00;;;;;;4991612;28;19921;-63
2021/07/26 03:27:21;;;;;;;;;;;17.10;1.00;;;;;;4991099;28;19962;-63
2021/07/26 03:29:46;;;;;;;;;;;17.10;1.00;;;;;;4991168;28;20454;-63
2021/07/26 03:32:12;;;;;;;;;;;17.10;1.00;;;;;;4990935;28;19920;-63
2021/07/26 03:34:37;;;;;;;;;;;17.10;1.00;;;;;;4991533;28;20013;-62
2021/07/26 03:37:03;;;;;;;;;;;17.10;1.00;;;;;;4991802;28;19910;-63
2021/07/26 03:39:28;;;;;;;;;;;17.10;1.00;;;;;;4990724;28;19917;-63
2021/07/26 03:41:58;;;;;;;;;;;17.10;1.00;;;;;;4991417;28;19913;-62
2021/07/26 03:44:23;;;;;;;;;;;17.10;1.00;;;;;;4990788;28;19972;-63
2021/07/26 03:46:49;;;;;;;;;;;17.10;1.00;;;;;;4991300;28;19917;-63
2021/07/26 03:49:14;;;;;;;;;;;17.10;1.00;;;;;;4990786;28;19920;-62
2021/07/26 03:51:40;;;;;;;;;;;17.20;1.00;;;;;;4991444;28;20383;-65
2021/07/26 03:54:05;;;;;;;;;;;17.20;1.00;;;;;;4990878;28;19910;-62
2021/07/26 03:56:31;;;;;;;;;;;17.20;1.00;;;;;;4991109;28;19993;-62
2021/07/26 03:58:56;;;;;;;;;;;17.20;1.00;;;;;;4990364;28;19914;-62
2021/07/26 04:01:21;;;;;;;;;;;17.30;1.00;;;;;;4990946;28;19914;-62
2021/07/26 04:03:47;;;;;;;;;;;17.30;1.00;;;;;;4991092;28;20335;-62
2021/07/26 04:06:15;;;;;;;;;;;17.30;1.00;;;;;;4990817;28;19945;-63
2021/07/26 04:08:43;;;;;;;;;;;17.40;1.00;;;;;;4990606;28;20322;-63
2021/07/26 04:11:12;;;;;;;;;;;17.50;1.00;;;;;;4990847;28;20430;-63
2021/07/26 04:13:39;;;;;;;;;;;17.50;1.00;;;;;;4991157;28;19921;-62
2021/07/26 04:16:05;;;;;;;;;;;17.50;1.00;;;;;;4990793;28;19914;-63
2021/07/26 04:18:30;;;;;;;;;;;17.60;1.00;;;;;;4990206;28;19917;-62
2021/07/26 04:20:56;;;;;;;;;;;17.70;1.00;;;;;;4991205;28;19917;-63
2021/07/26 04:23:22;;;;;;;;;;;17.70;1.00;;;;;;4991118;28;19921;-63
2021/07/26 04:25:48;;;;;;;;;;;17.70;1.00;;;;;;4990694;28;20363;-63
2021/07/26 04:28:14;;;;;;;;;;;17.70;1.00;;;;;;5014096;23;20305;-64
2021/07/26 04:30:40;;;;;;;;;;;17.80;1.00;;;;;;4990031;28;19985;-64
2021/07/26 04:33:05;;;;;;;;;;;17.80;1.00;;;;;;4992086;28;20381;-63
2021/07/26 04:35:30;;;;;;;;;;;17.80;1.00;;;;;;4994952;28;19989;-64
2021/07/26 04:37:56;;;;;;;;;;;17.90;1.00;;;;;;4994030;28;19952;-64
2021/07/26 04:40:21;;;;;;;;;;;17.90;1.00;;;;;;4994503;28;20271;-64
2021/07/26 04:42:47;;;;;;;;;;;17.90;1.00;;;;;;4994600;28;19914;-64
2021/07/26 04:45:13;;;;;;;;;;;18.00;1.00;;;;;;4993780;28;19969;-64
2021/07/26 04:47:39;;;;;;;;;;;18.00;1.00;;;;;;4994197;28;19971;-64
2021/07/26 04:50:05;;;;;;;;;;;17.90;1.00;;;;;;4994496;28;19917;-65
2021/07/26 04:52:30;;;;;;;;;;;18.00;1.00;;;;;;4994302;28;20378;-64
2021/07/26 04:54:56;;;;;;;;;;;18.00;1.00;;;;;;4992694;28;19969;-64
2021/07/26 04:57:21;;;;;;;;;;;18.00;1.00;;;;;;4993416;28;19914;-64
2021/07/26 04:59:47;;;;;;;;;;;18.00;1.00;;;;;;4993290;28;19910;-64
2021/07/26 05:02:12;;;;;;;;;;;18.00;1.00;;;;;;4993937;28;20008;-64
2021/07/26 05:04:38;;;;;;;;;;;17.90;1.00;;;;;;4993374;28;19926;-64
2021/07/26 05:07:04;;;;;;;;;;;18.00;1.00;;;;;;4993956;28;19933;-64
2021/07/26 05:09:29;;;;;;;;;;;18.00;1.00;;;;;;4993365;28;19913;-64
2021/07/26 05:12:01;;;;;;;;;;;18.10;1.00;;;;;;4993615;28;20008;-64
2021/07/26 05:14:27;;;;;;;;;;;18.10;1.00;;;;;;4993221;28;19964;-64
2021/07/26 05:16:52;;;;;;;;;;;18.10;1.00;;;;;;4994150;28;20379;-64
2021/07/26 05:19:18;;;;;;;;;;;18.20;1.00;;;;;;4992981;28;19949;-64
2021/07/26 05:21:43;;;;;;;;;;;18.20;1.00;;;;;;4993901;28;19950;-64
2021/07/26 05:24:09;;;;;;;;;;;18.30;1.00;;;;;;4993275;28;20319;-64
2021/07/26 05:26:35;;;;;;;;;;;18.30;1.00;;;;;;4992113;28;20331;-64
2021/07/26 05:29:00;;;;;;;;;;;18.40;1.00;;;;;;4992393;28;19914;-64
2021/07/26 05:31:26;;;;;;;;;;;18.40;1.00;;;;;;4993556;28;19918;-64
2021/07/26 05:33:51;;;;;;;;;;;18.50;1.00;;;;;;4993724;28;19953;-64
2021/07/26 05:36:17;;;;;;;;;;;18.60;1.00;;;;;;4993413;28;20028;-64
2021/07/26 05:38:42;;;;;;;;;;;18.60;1.00;;;;;;4992435;28;19972;-66
2021/07/26 05:41:08;;;;;;;;;;;18.60;1.00;;;;;;4993185;28;19909;-64
2021/07/26 05:43:34;;;;;;;;;;;18.50;1.00;;;;;;4993144;28;20613;-64
2021/07/26 05:46:00;;;;;;;;;;;18.50;1.00;;;;;;4992159;28;19910;-64
2021/07/26 05:48:26;;;;;;;;;;;18.60;1.00;;;;;;4992547;28;19910;-64
2021/07/26 05:50:51;;;;;;;;;;;18.60;1.00;;;;;;4993238;28;19957;-64
2021/07/26 05:53:17;;;;;;;;;;;18.80;1.00;;;;;;4992961;28;19909;-64
2021/07/26 05:55:42;;;;;;;;;;;18.90;1.00;;;;;;4993150;28;19917;-66
2021/07/26 05:58:08;;;;;;;;;;;19.10;1.00;;;;;;4992443;28;19920;-64
2021/07/26 06:00:41;;;;;;;;;;;19.20;1.00;;;;;;4992728;28;19964;-65
2021/07/26 06:03:07;;;;;;;;;;;19.30;1.00;;;;;;4992822;28;20329;-65
2021/07/26 06:05:33;;;;;;;;;;;19.30;1.00;;;;;;4993091;28;19917;-65
2021/07/26 06:07:58;;;;;;;;;;;19.20;1.00;;;;;;4992987;28;19917;-65
2021/07/26 06:10:24;;;;;;;;;;;19.30;1.00;;;;;;4992730;28;19914;-64
2021/07/26 06:12:52;;;;;;;;;;;19.40;1.00;;;;;;4992723;28;20299;-65
2021/07/26 06:15:17;;;;;;;;;;;19.60;1.00;;;;;;4992050;28;19998;-65
2021/07/26 06:17:43;;;;;;;;;;;19.70;1.00;;;;;;4992186;28;20459;-65
2021/07/26 06:20:08;;;;;;;;;;;19.80;1.00;;;;;;4992554;28;19936;-64
2021/07/26 06:22:34;;;;;;;;;;;19.90;1.00;;;;;;4992691;28;19949;-64
2021/07/26 06:24:59;;;;;;;;;;;20.00;1.00;;;;;;4992606;28;19936;-64
2021/07/26 06:27:25;;;;;;;;;;;20.20;1.00;;;;;;4991667;28;19917;-64
2021/07/26 06:29:52;;;;;;;;;;;20.40;1.00;;;;;;4992216;28;20259;-65
2021/07/26 06:32:18;;;;;;;;;;;20.70;1.00;;;;;;4993016;28;20286;-65
2021/07/26 06:34:44;;;;;;;;;;;21.00;99.90;;;;;;4992369;28;20391;-65
2021/07/26 06:37:09;;;;;;;;;;;21.50;53.10;;;;;;4992293;28;19910;-65
2021/07/26 06:39:35;;;;;;;;;;;21.90;1.00;;;;;;4991458;28;20396;-65
2021/07/26 06:42:01;;;;;;;;;;;22.20;99.90;;;;;;4992463;28;19910;-64
2021/07/26 06:44:26;;;;;;;;;;;22.50;53.80;;;;;;4991690;28;20000;-65
2021/07/26 06:46:55;;;;;;;;;;;22.60;1.00;;;;;;4992361;28;19945;-65
2021/07/26 06:49:20;;;;;;;;;;;22.90;1.00;;;;;;4991453;28;19920;-65
2021/07/26 06:51:46;;;;;;;;;;;23.20;1.00;;;;;;4992161;28;20321;-65
2021/07/26 06:54:11;;;;;;;;;;;23.20;99.90;;;;;;4992594;28;19916;-64
2021/07/26 06:56:36;;;;;;;;;;;23.40;1.00;;;;;;4991404;28;19914;-64
2021/07/26 06:59:02;;;;;;;;;;;23.40;1.00;;;;;;4991165;28;20374;-65
2021/07/26 07:01:28;;;;;;;;;;;23.60;1.00;;;;;;4991925;28;19937;-65
2021/07/26 07:03:55;;;;;;;;;;;23.70;1.00;;;;;;4991981;28;19914;-65
2021/07/26 07:06:23;;;;;;;;;;;23.60;1.00;;;;;;4991860;28;19909;-66
2021/07/26 07:08:49;;;;;;;;;;;23.50;1.00;;;;;;4991311;28;19922;-66
2021/07/26 07:11:15;;;;;;;;;;;23.40;1.00;;;;;;4991396;28;20260;-66
2021/07/26 07:13:41;;;;;;;;;;;23.20;1.00;;;;;;4991372;28;19925;-65
2021/07/26 07:16:08;;;;;;;;;;;23.20;1.00;;;;;;4991818;28;19973;-65
2021/07/26 07:18:34;;;;;;;;;;;23.10;1.00;;;;;;4991255;28;20359;-65
2021/07/26 07:21:00;;;;;;;;;;;22.90;1.00;;;;;;4991631;28;20014;-65
2021/07/26 07:23:25;;;;;;;;;;;22.90;1.00;;;;;;4991772;28;20009;-65
2021/07/26 07:25:51;;;;;;;;;;;22.80;1.00;;;;;;4991451;28;20355;-65
2021/07/26 07:28:17;;;;;;;;;;;22.70;1.00;;;;;;4990926;28;19924;-65
2021/07/26 07:30:43;;;;;;;;;;;22.60;57.60;;;;;;4991043;28;19910;-65
2021/07/26 07:33:08;;;;;;;;;;;22.50;99.90;;;;;;4991474;28;20208;-67
2021/07/26 07:35:34;;;;;;;;;;;22.40;99.90;;;;;;4991348;28;19921;-67
2021/07/26 07:37:59;;;;;;;;;;;21.90;1.00;;;;;;4990552;28;20390;-70
2021/07/26 07:40:25;;;;;;;;;;;21.80;1.00;;;;;;4991021;28;19909;-67
2021/07/26 07:42:50;;;;;;;;;;;21.90;99.90;;;;;;4991669;28;20004;-67
2021/07/26 07:45:16;;;;;;;;;;;22.00;99.90;;;;;;4990884;28;20273;-67
2021/07/26 07:47:41;;;;;;;;;;;22.10;99.90;;;;;;4990616;28;19910;-67
2021/07/26 07:50:07;;;;;;;;;;;22.20;99.90;;;;;;4989905;28;19916;-67
2021/07/26 07:52:34;;;;;;;;;;;22.40;97.40;;;;;;4991171;28;20318;-67
2021/07/26 07:55:00;;;;;;;;;;;22.60;1.00;;;;;;4992229;28;19910;-67
2021/07/26 07:57:26;;;;;;;;;;;22.80;1.00;;;;;;4994641;28;20314;-66
2021/07/26 07:59:52;;;;;;;;;;;23.00;99.90;;;;;;4995374;28;19909;-68
2021/07/26 08:02:17;;;;;;;;;;;23.50;99.90;;;;;;4995051;28;19963;-67
2021/07/26 08:04:45;;;;;;;;;;;23.80;1.00;;;;;;4994314;28;19920;-65
2021/07/26 08:07:11;;;;;;;;;;;24.40;1.00;;;;;;4994074;28;19918;-64
2021/07/26 08:09:36;;;;;;;;;;;24.90;99.90;;;;;;4994199;28;20364;-65
2021/07/26 08:12:02;;;;;;;;;;;25.20;42.60;;;;;;4993591;28;20393;-65
2021/07/26 08:14:27;;;;;;;;;;;25.80;1.00;;;;;;4992522;28;19910;-64
2021/07/26 08:16:53;;;;;;;;;;;26.20;1.00;;;;;;4992862;28;19914;-65
2021/07/26 08:19:19;;;;;;;;;;;27.30;1.00;;;;;;4992227;28;19910;-66
2021/07/26 08:21:44;;;;;;;;;;;28.40;1.00;;;;;;4992342;28;19916;-65
2021/07/26 08:24:09;;;;;;;;;;;29.80;1.00;;;;;;4991779;28;19917;-64
2021/07/26 08:26:35;;;;;;;;;;;31.60;99.90;;;;;;4992343;28;19918;-63
2021/07/26 08:29:01;;;;;;;;;;;33.20;99.90;;;;;;4991429;28;19913;-65
2021/07/26 08:31:26;;;;;;;;;;;34.40;99.90;;;;;;4992336;28;19920;-65
2021/07/26 08:33:51;;;;;;;;;;;35.20;99.90;;;;;;4992561;28;20270;-65
2021/07/26 08:36:17;;;;;;;;;;;35.50;99.90;;;;;;4991695;28;19917;-65
2021/07/26 08:38:42;;;;;;;;;;;36.20;99.90;;;;;;4991686;28;19905;-66
2021/07/26 08:41:08;;;;;;;;;;;36.60;99.90;;;;;;4992520;28;20359;-65
2021/07/26 08:43:34;;;;;;;;;;;35.90;99.90;;;;;;4991997;28;20016;-65
2021/07/26 08:46:01;;;;;;;;;;;34.90;99.90;;;;;;4991355;28;19917;-66
2021/07/26 08:48:27;;;;;;;;;;;33.80;99.90;;;;;;4990912;28;20310;-64
2021/07/26 08:50:53;;;;;;;;;;;32.50;99.90;;;;;;4991784;28;19917;-64
2021/07/26 08:53:20;;;;;;;;;;;31.20;99.90;;;;;;4992381;28;20036;-65
2021/07/26 08:55:48;;;;;;;;;;;30.40;99.90;;;;;;4991731;28;19909;-65
2021/07/26 08:58:15;;;;;;;;;;;29.70;99.90;;;;;;4990955;28;19932;-66
2021/07/26 09:00:41;;;;;;;;;;;29.40;99.90;;;;;;4990826;28;19913;-64
2021/07/26 09:03:06;;;;;;;;;;;29.40;99.90;;;;;;4991689;28;19920;-65
2021/07/26 09:05:31;;;;;;;;;;;29.90;99.90;;;;;;4991739;28;20079;-65
2021/07/26 09:07:58;;;;;;;;;;;30.40;99.90;;;;;;4991053;28;19910;-65
2021/07/26 09:10:24;;;;;;;;;;;30.60;99.90;;;;;;4991166;28;20005;-65
2021/07/26 09:12:50;;;;;;;;;;;30.70;99.90;;;;;;4991330;28;20004;-66
2021/07/26 09:15:16;;;;;;;;;;;30.70;99.90;;;;;;4991230;28;19922;-65
2021/07/26 09:17:43;;;;;;;;;;;30.50;99.90;;;;;;4991098;28;19917;-65
2021/07/26 09:20:09;;;;;;;;;;;30.20;99.90;;;;;;4990477;28;20525;-63
2021/07/26 09:22:36;;;;;;;;;;;29.80;99.90;;;;;;4989946;28;20290;-66
2021/07/26 09:25:10;;;;;;;;;;;29.50;99.90;;;;;;4991078;28;19914;-65
2021/07/26 09:27:36;;;;;;;;;;;29.70;99.90;;;;;;4990621;28;19928;-66
2021/07/26 09:30:12;;;;;;;;;;;30.00;99.90;;;;;;4991121;28;20351;-65
2021/07/26 09:32:38;;;;;;;;;;;30.50;99.90;;;;;;4990833;28;19969;-65
2021/07/26 09:35:06;;;;;;;;;;;30.80;99.90;;;;;;4991087;28;19918;-65
2021/07/26 09:37:31;;;;;;;;;;;31.20;99.90;;;;;;4989093;28;19956;-65
2021/07/26 09:40:10;;;;;;;;;;;31.80;99.90;;;;;;4990978;28;19953;-66
2021/07/26 09:42:35;;;;;;;;;;;33.10;99.90;;;;;;4990983;28;20109;-66
2021/07/26 09:45:40;;;;;;;;;;;34.70;99.90;;;;;;4990248;28;19985;-67
2021/07/26 09:48:05;;;;;;;;;;;35.60;99.90;;;;;;4929525;29;20262;-67
2021/07/26 09:50:35;;;;;;;;;;;36.10;99.90;;;;;;4930262;29;20535;-66
2021/07/26 09:53:05;;;;;;;;;;;35.40;99.90;;;;;;4930159;29;19934;-66
2021/07/26 09:55:31;;;;;;;;;;;35.40;99.90;;;;;;4930538;29;20011;-64
2021/07/26 09:58:02;;;;;;;;;;;35.40;99.90;;;;;;4929712;29;19933;-67
2021/07/26 10:00:29;;;;;;;;;;;35.50;99.90;;;;;;4929440;29;19965;-67
2021/07/26 10:02:54;;;;;;;;;;;35.60;99.90;;;;;;4929330;29;19911;-66
2021/07/26 10:05:22;;;;;;;;;;;36.10;99.90;;;;;;4929736;29;19978;-66
2021/07/26 10:07:49;;;;;;;;;;;36.80;99.90;;;;;;4929164;29;19930;-65
2021/07/26 10:10:15;;;;;;;;;;;37.00;99.90;;;;;;4930293;29;20399;-67
2021/07/26 10:12:41;;;;;;;;;;;37.20;99.90;;;;;;4930143;29;20061;-66
2021/07/26 10:15:07;;;;;;;;;;;37.60;99.90;;;;;;4928760;29;19919;-66
2021/07/26 10:17:32;;;;;;;;;;;37.30;99.90;;;;;;4931797;29;20377;-65
2021/07/26 10:19:58;;;;;;;;;;;38.10;99.90;;;;;;4987692;28;19910;-66
2021/07/26 10:22:25;;;;;;;;;;;37.90;99.90;;;;;;4990639;28;19956;-64
2021/07/26 10:25:05;;;;;;;;;;;37.70;99.90;;;;;;4989963;28;19925;-65
2021/07/26 10:27:31;;;;;;;;;;;37.30;99.90;;;;;;4989760;28;20333;-65
2021/07/26 10:29:58;;;;;;;;;;;36.80;99.90;;;;;;4989516;28;19957;-64
2021/07/26 10:32:30;;;;;;;;;;;36.20;99.90;;;;;;4989798;28;19917;-66
2021/07/26 10:34:56;;;;;;;;;;;37.10;99.90;;;;;;4989545;28;19918;-65
2021/07/26 10:37:45;;;;;;;;;;;38.00;99.90;;;;;;4988506;28;20351;-65
2021/07/26 10:40:23;;;;;;;;;;;38.10;99.90;;;;;;4979371;28;19916;-66
2021/07/26 10:42:52;;;;;;;;;;;38.90;99.90;;;;;;4989262;28;19921;-65
2021/07/26 10:45:33;;;;;;;;;;;40.10;99.90;;;;;;4988972;28;19964;-66
2021/07/26 10:48:17;;;;;;;;;;;41.50;99.90;;;;;;4991443;28;20374;-67
2021/07/26 10:50:44;;;;;;;;;;;42.60;99.90;;;;;;4992357;28;20272;-66
2021/07/26 10:53:10;;;;;;;;;;;43.50;99.90;;;;;;4991983;28;19910;-66
2021/07/26 10:55:54;;;;;;;;;;;43.20;99.90;;;;;;4992068;28;19936;-66
2021/07/26 10:58:53;;;;;;;;;;;43.20;99.90;;;;;;4991621;28;20015;-65
2021/07/26 11:01:22;;;;;;;;;;;41.80;99.90;;;;;;4991181;28;19917;-66
2021/07/26 11:03:54;;;;;;;;;;;40.10;99.90;;;;;;4992004;28;20143;-66
2021/07/26 11:06:35;;;;;;;;;;;40.00;99.90;;;;;;4991603;28;19910;-65
2021/07/26 11:09:19;;;;;;;;;;;40.10;99.90;;;;;;4991309;28;19914;-66
2021/07/26 11:11:48;;;;;;;;;;;40.20;99.90;;;;;;4992069;28;19920;-66
2021/07/26 11:14:14;;;;;;;;;;;39.40;99.70;;;;;;4991724;28;20029;-66
2021/07/26 11:16:54;;;;;;;;;;;38.40;97.60;;;;;;4991328;28;19957;-65
2021/07/26 11:19:32;;;;;;;;;;;37.50;97.00;;;;;;4990825;28;19936;-65
2021/07/26 11:21:58;;;;;;;;;;;36.70;96.90;;;;;;4991534;28;19910;-66
2021/07/26 11:24:39;;;;;;;;;;;36.40;98.10;;;;;;4991500;28;19917;-66
2021/07/26 11:27:04;;;;;;;;;;;36.40;99.90;;;;;;4991116;28;20334;-68
2021/07/26 11:29:30;;;;;;;;;;;36.30;99.90;;;;;;4990040;28;19910;-66
2021/07/26 11:31:59;;;;;;;;;;;36.10;99.80;;;;;;4991398;28;19918;-66
2021/07/26 11:34:29;;;;;;;;;;;35.70;99.90;;;;;;4991244;28;19969;-65
2021/07/26 11:37:01;;;;;;;;;;;35.50;99.90;;;;;;4991338;28;20346;-65
2021/07/26 11:39:26;;;;;;;;;;;35.60;99.90;;;;;;4990335;28;19914;-65
2021/07/26 11:41:52;;;;;;;;;;;34.90;99.90;;;;;;4991064;28;19914;-66
2021/07/26 11:44:27;;;;;;;;;;;33.70;99.90;;;;;;4990440;28;20015;-66
2021/07/26 11:46:53;;;;;;;;;;;32.80;99.90;;;;;;4991038;28;20294;-65
2021/07/26 11:49:18;;;;;;;;;;;32.40;99.90;;;;;;4990325;28;19913;-66
2021/07/26 11:51:44;;;;;;;;;;;32.40;99.90;;;;;;4990897;28;19914;-66
2021/07/26 11:54:09;;;;;;;;;;;32.40;99.90;;;;;;4990943;28;20008;-65
2021/07/26 11:56:35;;;;;;;;;;;32.60;99.90;;;;;;4991029;28;19910;-65
2021/07/26 11:59:13;;;;;;;;;;;33.00;99.90;;;;;;4990213;28;19921;-65
2021/07/26 12:01:40;;;;;;;;;;;33.40;99.90;;;;;;4990942;28;20544;-65
2021/07/26 12:04:06;;;;;;;;;;;33.60;99.90;;;;;;4990978;28;20009;-64
2021/07/26 12:06:50;;;;;;;;;;;33.70;99.90;;;;;;4991111;28;20009;-66
2021/07/26 12:09:16;;;;;;;;;;;33.90;99.90;;;;;;4990264;28;19987;-64
2021/07/26 12:11:42;;;;;;;;;;;34.00;99.90;;;;;;4991185;28;19913;-64
2021/07/26 12:14:29;;;;;;;;;;;33.80;99.90;;;;;;4991928;28;19914;-63
2021/07/26 12:16:58;;;;;;;;;;;33.60;99.90;;;;;;4991072;28;20314;-64
2021/07/26 12:19:23;;;;;;;;;;;33.30;99.90;;;;;;4990155;28;20337;-64
2021/07/26 12:21:49;;;;;;;;;;;32.90;99.90;;;;;;4990871;28;19914;-66
2021/07/26 12:24:14;;;;;;;;;;;32.80;99.90;;;;;;4990943;28;19985;-64
2021/07/26 12:26:59;;;;;;;;;;;32.60;99.90;;;;;;4992040;28;20275;-66
2021/07/26 12:29:26;;;;;;;;;;;32.50;99.90;;;;;;4989931;28;19917;-66
2021/07/26 12:32:02;;;;;;;;;;;32.30;99.90;;;;;;4990686;28;19910;-66
2021/07/26 12:34:27;;;;;;;;;;;32.00;99.90;;;;;;4989715;28;19918;-66
2021/07/26 12:36:57;;;;;;;;;;;31.40;99.90;;;;;;4991197;28;19917;-66
2021/07/26 12:39:35;;;;;;;;;;;30.30;99.90;;;;;;4990321;28;19932;-66
2021/07/26 12:42:19;;;;;;;;;;;29.70;99.90;;;;;;4990430;28;19910;-65
2021/07/26 12:44:44;;;;;;;;;;;29.60;99.90;;;;;;4991779;28;19922;-65
2021/07/26 12:47:26;;;;;;;;;;;29.70;99.90;;;;;;4990657;28;20299;-66
2021/07/26 12:49:52;;;;;;;;;;;30.00;99.90;;;;;;4990752;28;19917;-65
2021/07/26 12:52:17;;;;;;;;;;;29.40;99.90;;;;;;4990427;28;19909;-65
2021/07/26 12:54:43;;;;;;;;;;;29.00;99.90;;;;;;4992422;28;19914;-66
2021/07/26 12:57:13;;;;;;;;;;;29.00;99.90;;;;;;5001582;28;19910;-66
2021/07/26 12:59:51;;;;;;;;;;;29.00;99.90;;;;;;5004159;28;19910;-66
2021/07/26 13:05:49;;;;;;;;;;;29.60;99.90;;;;;;5012069;28;19979;-66
2021/07/26 13:08:16;;;;;;;;;;;29.80;99.90;;;;;;4993190;28;20378;-65
2021/07/26 13:10:42;;;;;;;;;;;30.10;99.90;;;;;;4999853;28;19944;-65
2021/07/26 13:13:14;;;;;;;;;;;30.30;99.90;;;;;;4998211;28;19910;-66
2021/07/26 13:15:53;;;;;;;;;;;30.30;99.90;;;;;;5005212;28;19918;-65
2021/07/26 13:18:19;;;;;;;;;;;29.70;99.90;;;;;;5003047;28;20062;-65
2021/07/26 13:20:45;;;;;;;;;;;29.30;99.90;;;;;;4999232;28;19949;-65
2021/07/26 13:23:10;;;;;;;;;;;28.80;99.90;;;;;;4994172;28;20024;-65
2021/07/26 13:25:38;;;;;;;;;;;28.30;99.90;;;;;;4995083;28;20330;-65
2021/07/26 13:28:04;;;;;;;;;;;28.00;99.90;;;;;;4994803;28;19975;-65
2021/07/26 13:30:30;;;;;;;;;;;27.90;99.90;;;;;;4994422;28;20389;-65
2021/07/26 13:32:56;;;;;;;;;;;27.90;99.90;;;;;;4995013;28;19914;-65
2021/07/26 13:35:22;;;;;;;;;;;27.90;99.90;;;;;;5003246;28;19921;-65
2021/07/26 13:37:47;;;;;;;;;;;27.80;99.90;;;;;;4994706;28;19914;-65
2021/07/26 13:40:13;;;;;;;;;;;27.70;99.90;;;;;;4995192;28;20363;-65
2021/07/26 13:42:39;;;;;;;;;;;27.70;99.90;;;;;;4994511;28;20428;-65
2021/07/26 13:45:04;;;;;;;;;;;27.70;99.90;;;;;;4994818;28;19910;-65
2021/07/26 13:47:30;;;;;;;;;;;27.70;99.90;;;;;;4994433;28;19924;-65
2021/07/26 13:49:56;;;;;;;;;;;27.70;99.90;;;;;;4994645;28;20004;-65
2021/07/26 13:52:22;;;;;;;;;;;27.50;99.90;;;;;;4994293;28;19966;-65
2021/07/26 13:54:47;;;;;;;;;;;27.40;99.90;;;;;;4994864;28;20371;-65
2021/07/26 13:57:13;;;;;;;;;;;27.60;99.90;;;;;;4994325;28;19949;-65
2021/07/26 13:59:40;;;;;;;;;;;27.90;99.90;;;;;;4994117;28;19949;-65
2021/07/26 14:02:09;;;;;;;;;;;28.10;99.90;;;;;;4994486;28;19914;-65
2021/07/26 14:04:34;;;;;;;;;;;28.00;99.90;;;;;;4994241;28;19910;-65
2021/07/26 14:07:00;;;;;;;;;;;27.60;99.90;;;;;;4993957;28;20005;-65
2021/07/26 14:09:25;;;;;;;;;;;27.50;99.90;;;;;;4994323;28;20294;-65
2021/07/26 14:11:51;;;;;;;;;;;27.50;99.90;;;;;;4994297;28;19910;-65
2021/07/26 14:14:16;;;;;;;;;;;27.60;99.90;;;;;;4994285;28;19960;-65
2021/07/26 14:16:42;;;;;;;;;;;27.70;99.90;;;;;;4994168;28;19910;-65
2021/07/26 14:19:07;;;;;;;;;;;27.60;99.90;;;;;;4994172;28;19992;-65
2021/07/26 14:21:33;;;;;;;;;;;27.60;99.90;;;;;;4993906;28;19949;-65
2021/07/26 14:23:58;;;;;;;;;;;27.80;99.90;;;;;;4993730;28;20385;-65
2021/07/26 14:26:24;;;;;;;;;;;27.90;99.90;;;;;;4993916;28;20243;-65
2021/07/26 14:28:50;;;;;;;;;;;28.00;99.90;;;;;;4992502;28;19970;-65